createdAt,value
2023-02-14T00:00:06.538Z,0.6
2023-02-14T00:01:06.214Z,0.6
2023-02-14T00:02:05.902Z,0.6
2023-02-14T00:03:06.735Z,0.6
2023-02-14T00:04:06.605Z,0.6
2023-02-14T00:05:06.338Z,0.6
2023-02-14T00:06:06.039Z,0.6
2023-02-14T00:07:06.584Z,0.6
2023-02-14T00:08:06.052Z,0
2023-02-14T00:09:06.797Z,0.6
2023-02-14T00:10:06.317Z,0.5
2023-02-14T00:11:06.165Z,0.5
2023-02-14T00:12:06.572Z,0.5
2023-02-14T00:13:06.277Z,0.5
2023-02-14T00:14:06.048Z,0.5
2023-02-14T00:15:06.649Z,0
2023-02-14T00:16:06.260Z,0.4
2023-02-14T00:17:05.925Z,0
2023-02-14T00:18:06.388Z,0.4
2023-02-14T00:19:05.963Z,0.5
2023-02-14T00:20:05.765Z,0.5
2023-02-14T00:21:06.590Z,0.5
2023-02-14T00:22:06.198Z,0.5
2023-02-14T00:23:06.064Z,0.5
2023-02-14T00:24:06.778Z,0.5
2023-02-14T00:25:06.205Z,0.5
2023-02-14T00:26:05.902Z,0.5
2023-02-14T00:27:06.093Z,0
2023-02-14T00:28:05.988Z,0.5
2023-02-14T00:29:06.523Z,0.5
2023-02-14T00:30:06.680Z,0.4
2023-02-14T00:31:06.639Z,0.4
2023-02-14T00:32:06.937Z,0.4
2023-02-14T00:33:06.303Z,0.4
2023-02-14T00:34:05.879Z,0.4
2023-02-14T00:35:06.736Z,0.4
2023-02-14T00:36:06.253Z,0.4
2023-02-14T00:37:05.994Z,0.4
2023-02-14T00:38:06.701Z,0.4
2023-02-14T00:39:06.428Z,0.5
2023-02-14T00:40:06.117Z,0.4
2023-02-14T00:41:05.799Z,0.4
2023-02-14T00:42:06.433Z,0.4
2023-02-14T00:43:05.949Z,0.5
2023-02-14T00:44:06.747Z,0.5
2023-02-14T00:45:06.485Z,0.5
2023-02-14T00:46:06.432Z,0.5
2023-02-14T00:47:05.849Z,0.4
2023-02-14T00:48:06.379Z,0.4
2023-02-14T00:49:06.016Z,0.4
2023-02-14T00:50:06.498Z,0.4
2023-02-14T00:51:06.357Z,0
2023-02-14T00:52:06.108Z,0.4
2023-02-14T00:53:05.808Z,0.4
2023-02-14T00:54:06.515Z,0.4
2023-02-14T00:55:06.036Z,0.4
2023-02-14T00:56:05.898Z,0.4
2023-02-14T00:57:06.564Z,0.4
2023-02-14T00:58:06.201Z,0.3
2023-02-14T00:59:06.005Z,0.4
2023-02-14T01:00:06.674Z,0.4
2023-02-14T01:01:06.833Z,0.4
2023-02-14T01:02:06.066Z,0.4
2023-02-14T01:03:05.738Z,0.4
2023-02-14T01:04:06.124Z,0.4
2023-02-14T01:05:06.033Z,0.4
2023-02-14T01:06:05.821Z,0.4
2023-02-14T01:07:06.462Z,0.4
2023-02-14T01:08:06.287Z,0.4
2023-02-14T01:09:05.730Z,0.3
2023-02-14T01:10:06.659Z,0.4
2023-02-14T01:11:06.520Z,0.3
2023-02-14T01:12:06.108Z,0.3
2023-02-14T01:13:06.776Z,0.3
2023-02-14T01:14:06.237Z,0.3
2023-02-14T01:15:05.870Z,0.3
2023-02-14T01:16:06.031Z,0.3
2023-02-14T01:17:06.374Z,0.3
2023-02-14T01:18:06.461Z,0
2023-02-14T01:19:05.833Z,0.3
2023-02-14T01:20:06.639Z,0.3
2023-02-14T01:21:05.918Z,0.3
2023-02-14T01:22:06.380Z,0.2
2023-02-14T01:23:06.080Z,0.2
2023-02-14T01:24:06.457Z,0.2
2023-02-14T01:25:06.609Z,0.2
2023-02-14T01:26:05.834Z,0.3
2023-02-14T01:27:05.733Z,0.3
2023-02-14T01:28:06.439Z,0.3
2023-02-14T01:29:05.946Z,0.3
2023-02-14T01:30:06.877Z,0.3
2023-02-14T01:31:06.450Z,0.3
2023-02-14T01:32:06.873Z,0.3
2023-02-14T01:33:06.089Z,0.3
2023-02-14T01:34:05.960Z,0
2023-02-14T01:35:06.504Z,0
2023-02-14T01:36:06.212Z,0.3
2023-02-14T01:37:05.742Z,0.3
2023-02-14T01:38:06.405Z,0.3
2023-02-14T01:39:06.025Z,0.3
2023-02-14T01:40:05.702Z,0.3
2023-02-14T01:41:06.472Z,0.3
2023-02-14T01:42:06.185Z,0.3
2023-02-14T01:43:05.902Z,0.3
2023-02-14T01:44:06.355Z,0.3
2023-02-14T01:45:06.004Z,0.4
2023-02-14T01:46:06.544Z,0.3
2023-02-14T01:47:06.108Z,0.3
2023-02-14T01:48:06.767Z,0.3
2023-02-14T01:49:06.336Z,0
2023-02-14T01:50:06.439Z,0
2023-02-14T01:51:06.504Z,0.3
2023-02-14T01:52:08.307Z,0.3
2023-02-14T01:53:06.564Z,0.3
2023-02-14T01:54:06.220Z,0.3
2023-02-14T01:55:05.269Z,0.3
2023-02-14T01:56:05.982Z,0
2023-02-14T01:57:06.560Z,0
2023-02-14T01:58:06.234Z,0.3
2023-02-14T01:59:05.874Z,0.3
2023-02-14T02:00:06.437Z,0.3
2023-02-14T02:01:06.863Z,0.3
2023-02-14T02:02:05.888Z,0.2
2023-02-14T02:03:06.483Z,0.3
2023-02-14T02:04:06.169Z,0.3
2023-02-14T02:05:05.815Z,0.3
2023-02-14T02:06:06.618Z,0.3
2023-02-14T02:07:06.073Z,0.3
2023-02-14T02:08:05.747Z,0.3
2023-02-14T02:09:06.457Z,0.2
2023-02-14T02:10:06.004Z,0.3
2023-02-14T02:11:06.186Z,0.3
2023-02-14T02:12:06.710Z,0.3
2023-02-14T02:13:06.019Z,0.3
2023-02-14T02:14:06.145Z,0
2023-02-14T02:15:05.578Z,0.3
2023-02-14T02:16:06.281Z,0.2
2023-02-14T02:17:06.197Z,0.2
2023-02-14T02:18:06.658Z,0.2
2023-02-14T02:19:06.376Z,0.2
2023-02-14T02:20:05.996Z,0.2
2023-02-14T02:21:06.698Z,0.2
2023-02-14T02:22:06.302Z,0.2
2023-02-14T02:23:05.582Z,0.2
2023-02-14T02:24:06.394Z,0.2
2023-02-14T02:25:06.051Z,0
2023-02-14T02:26:05.780Z,0.2
2023-02-14T02:27:08.179Z,0.2
2023-02-14T02:28:06.166Z,0.2
2023-02-14T02:29:05.836Z,0.2
2023-02-14T02:30:06.787Z,0.2
2023-02-14T02:31:07.222Z,0.2
2023-02-14T02:32:06.469Z,0.2
2023-02-14T02:33:06.619Z,0
2023-02-14T02:34:06.211Z,0.2
2023-02-14T02:35:05.832Z,0.3
2023-02-14T02:36:06.545Z,0.2
2023-02-14T02:37:06.042Z,0.2
2023-02-14T02:38:05.899Z,0.2
2023-02-14T02:39:05.833Z,0.3
2023-02-14T02:40:06.509Z,0.3
2023-02-14T02:41:06.885Z,0.3
2023-02-14T02:42:05.766Z,0.3
2023-02-14T02:43:06.528Z,0.3
2023-02-14T02:44:07.916Z,0.3
2023-02-14T02:45:05.822Z,0.3
2023-02-14T02:46:06.943Z,0.3
2023-02-14T02:47:06.376Z,0.3
2023-02-14T02:48:06.073Z,0.3
2023-02-14T02:49:06.728Z,0.3
2023-02-14T02:50:06.280Z,0.3
2023-02-14T02:51:06.364Z,0.2
2023-02-14T02:52:06.587Z,0.2
2023-02-14T02:53:06.333Z,0.3
2023-02-14T02:54:06.054Z,0.2
2023-02-14T02:55:05.828Z,0.2
2023-02-14T02:56:06.562Z,0.3
2023-02-14T02:57:06.399Z,0.3
2023-02-14T02:58:05.960Z,0.2
2023-02-14T02:59:06.685Z,0.3
2023-02-14T03:00:06.235Z,0
2023-02-14T03:01:06.737Z,0.3
2023-02-14T03:02:06.194Z,0.2
2023-02-14T03:03:05.898Z,0.2
2023-02-14T03:04:06.425Z,0.3
2023-02-14T03:05:06.512Z,0.2
2023-02-14T03:06:05.827Z,0.3
2023-02-14T03:07:06.472Z,0.3
2023-02-14T03:08:06.083Z,0
2023-02-14T03:09:05.965Z,0.3
2023-02-14T03:10:06.662Z,0.2
2023-02-14T03:11:06.473Z,0.3
2023-02-14T03:12:05.836Z,0
2023-02-14T03:13:06.458Z,0
2023-02-14T03:14:05.943Z,0.2
2023-02-14T03:15:05.747Z,0.2
2023-02-14T03:16:06.486Z,0.2
2023-02-14T03:17:06.104Z,0.2
2023-02-14T03:18:05.572Z,0
2023-02-14T03:19:06.341Z,0.2
2023-02-14T03:20:05.980Z,0.2
2023-02-14T03:21:06.674Z,0.2
2023-02-14T03:22:06.098Z,0.2
2023-02-14T03:23:05.928Z,0
2023-02-14T03:24:06.581Z,0.2
2023-02-14T03:25:06.284Z,0.2
2023-02-14T03:26:05.859Z,0
2023-02-14T03:27:06.666Z,0.2
2023-02-14T03:28:06.470Z,0
2023-02-14T03:29:06.055Z,0.2
2023-02-14T03:30:07.006Z,0.2
2023-02-14T03:31:07.596Z,0
2023-02-14T03:32:06.718Z,0.2
2023-02-14T03:33:05.831Z,0.2
2023-02-14T03:34:06.294Z,0.2
2023-02-14T03:35:05.858Z,0.2
2023-02-14T03:36:06.484Z,0.2
2023-02-14T03:37:06.617Z,0.2
2023-02-14T03:38:06.096Z,0.2
2023-02-14T03:39:05.786Z,0.3
2023-02-14T03:40:06.605Z,0.2
2023-02-14T03:41:06.584Z,0.2
2023-02-14T03:42:08.085Z,0.2
2023-02-14T03:43:06.358Z,0.2
2023-02-14T03:44:06.193Z,0.2
2023-02-14T03:45:06.229Z,0.2
2023-02-14T03:46:06.495Z,0.2
2023-02-14T03:47:05.901Z,0
2023-02-14T03:48:06.825Z,0.3
2023-02-14T03:49:06.459Z,0.3
2023-02-14T03:50:06.194Z,0.3
2023-02-14T03:51:06.402Z,0.2
2023-02-14T03:52:06.517Z,0.2
2023-02-14T03:53:06.156Z,0.2
2023-02-14T03:54:05.713Z,0.2
2023-02-14T03:55:06.463Z,0.2
2023-02-14T03:56:05.949Z,0.2
2023-02-14T03:57:05.865Z,0.2
2023-02-14T03:58:06.611Z,0.2
2023-02-14T03:59:06.290Z,0.3
2023-02-14T04:00:06.064Z,0.3
2023-02-14T04:01:06.784Z,0.2
2023-02-14T04:02:06.214Z,0.2
2023-02-14T04:03:06.606Z,0.2
2023-02-14T04:04:06.556Z,0.2
2023-02-14T04:05:06.008Z,0.3
2023-02-14T04:06:06.910Z,0.3
2023-02-14T04:07:06.760Z,0.2
2023-02-14T04:08:06.317Z,0.3
2023-02-14T04:09:05.885Z,0.2
2023-02-14T04:10:06.479Z,0.2
2023-02-14T04:11:06.430Z,0.2
2023-02-14T04:12:05.869Z,0.2
2023-02-14T04:13:06.459Z,0
2023-02-14T04:14:06.308Z,0.2
2023-02-14T04:15:05.849Z,0
2023-02-14T04:16:07.022Z,0.2
2023-02-14T04:17:06.215Z,0.2
2023-02-14T04:18:06.058Z,0.3
2023-02-14T04:19:05.741Z,0.3
2023-02-14T04:20:06.437Z,0.3
2023-02-14T04:21:06.291Z,0.3
2023-02-14T04:22:06.538Z,0.3
2023-02-14T04:23:07.838Z,0.2
2023-02-14T04:24:06.128Z,0
2023-02-14T04:25:06.643Z,0.3
2023-02-14T04:26:06.154Z,0.3
2023-02-14T04:27:05.987Z,0.3
2023-02-14T04:28:06.646Z,0.3
2023-02-14T04:29:06.298Z,0.3
2023-02-14T04:30:06.268Z,0.3
2023-02-14T04:31:07.311Z,0.3
2023-02-14T04:32:06.179Z,0.3
2023-02-14T04:33:06.537Z,0.3
2023-02-14T04:34:06.297Z,0.3
2023-02-14T04:35:05.938Z,0.3
2023-02-14T04:36:06.587Z,0.3
2023-02-14T04:37:06.198Z,0.3
2023-02-14T04:38:05.662Z,0.4
2023-02-14T04:39:06.454Z,0.4
2023-02-14T04:40:05.910Z,0.4
2023-02-14T04:41:06.362Z,0.4
2023-02-14T04:42:06.472Z,0.4
2023-02-14T04:43:06.112Z,0.4
2023-02-14T04:44:06.584Z,0.4
2023-02-14T04:45:08.512Z,0.4
2023-02-14T04:46:05.944Z,0.4
2023-02-14T04:47:06.439Z,0.4
2023-02-14T04:48:06.141Z,0.4
2023-02-14T04:49:05.592Z,0.4
2023-02-14T04:50:06.399Z,0.4
2023-02-14T04:51:06.290Z,0.4
2023-02-14T04:52:05.967Z,0.4
2023-02-14T04:53:06.371Z,0.4
2023-02-14T04:54:06.252Z,0.4
2023-02-14T04:55:05.887Z,0.4
2023-02-14T04:56:06.462Z,0.4
2023-02-14T04:57:06.386Z,0.4
2023-02-14T04:58:05.920Z,0
2023-02-14T04:59:06.445Z,0.4
2023-02-14T05:00:06.028Z,0.4
2023-02-14T05:01:06.857Z,0.4
2023-02-14T05:02:05.999Z,0.3
2023-02-14T05:03:06.482Z,0.3
2023-02-14T05:04:06.205Z,0.4
2023-02-14T05:05:05.871Z,0.3
2023-02-14T05:06:06.446Z,0.3
2023-02-14T05:07:06.157Z,0.3
2023-02-14T05:08:05.901Z,0.4
2023-02-14T05:09:06.516Z,0.4
2023-02-14T05:10:06.422Z,0.4
2023-02-14T05:11:06.126Z,0.4
2023-02-14T05:12:06.581Z,0.4
2023-02-14T05:13:06.054Z,0
2023-02-14T05:14:05.566Z,0.4
2023-02-14T05:15:06.685Z,0.4
2023-02-14T05:16:06.642Z,0.4
2023-02-14T05:17:06.567Z,0.4
2023-02-14T05:18:06.259Z,0.4
2023-02-14T05:19:05.919Z,0.4
2023-02-14T05:20:05.732Z,0.4
2023-02-14T05:21:06.777Z,0
2023-02-14T05:22:06.125Z,0.4
2023-02-14T05:23:05.764Z,0.4
2023-02-14T05:24:06.578Z,0.4
2023-02-14T05:25:06.502Z,0.4
2023-02-14T05:26:06.025Z,0.4
2023-02-14T05:27:06.555Z,0.4
2023-02-14T05:28:06.293Z,0.4
2023-02-14T05:29:05.860Z,0.4
2023-02-14T05:30:06.840Z,0.4
2023-02-14T05:31:07.191Z,0.4
2023-02-14T05:32:05.872Z,0.3
2023-02-14T05:33:06.542Z,0.4
2023-02-14T05:34:06.186Z,0.3
2023-02-14T05:35:05.986Z,0.3
2023-02-14T05:36:06.772Z,0.3
2023-02-14T05:37:06.494Z,0.3
2023-02-14T05:38:05.989Z,0.3
2023-02-14T05:39:06.700Z,0.4
2023-02-14T05:40:06.351Z,0.3
2023-02-14T05:41:06.228Z,0.3
2023-02-14T05:42:06.542Z,0.3
2023-02-14T05:43:06.254Z,0.3
2023-02-14T05:44:06.053Z,0.3
2023-02-14T05:45:06.588Z,0.3
2023-02-14T05:46:06.920Z,0
2023-02-14T05:47:06.168Z,0.3
2023-02-14T05:48:05.828Z,0.3
2023-02-14T05:49:06.685Z,0.3
2023-02-14T05:50:06.198Z,0.3
2023-02-14T05:51:06.269Z,0.3
2023-02-14T05:52:06.426Z,0.3
2023-02-14T05:53:06.264Z,0.3
2023-02-14T05:54:06.166Z,0.2
2023-02-14T05:55:06.734Z,0.2
2023-02-14T05:56:06.330Z,0.2
2023-02-14T05:57:05.800Z,0.2
2023-02-14T05:58:06.414Z,0.2
2023-02-14T05:59:06.112Z,0
2023-02-14T06:00:05.894Z,0.2
2023-02-14T06:01:06.140Z,0.2
2023-02-14T06:02:06.732Z,0.2
2023-02-14T06:03:06.132Z,0.2
2023-02-14T06:04:06.033Z,0.2
2023-02-14T06:05:06.681Z,0.2
2023-02-14T06:06:06.258Z,0.2
2023-02-14T06:07:05.865Z,0.2
2023-02-14T06:08:06.415Z,0.2
2023-02-14T06:09:06.223Z,0.2
2023-02-14T06:10:06.055Z,-1
2023-02-14T06:11:06.758Z,0.2
2023-02-14T06:12:06.067Z,0.2
2023-02-14T06:13:05.840Z,0.1
2023-02-14T06:14:06.527Z,0.1
2023-02-14T06:15:06.279Z,0.1
2023-02-14T06:16:05.912Z,0.1
2023-02-14T06:17:05.933Z,0.2
2023-02-14T06:18:06.285Z,0.2
2023-02-14T06:19:06.051Z,0.1
2023-02-14T06:20:05.843Z,0.1
2023-02-14T06:21:06.958Z,0.1
2023-02-14T06:22:06.198Z,0.1
2023-02-14T06:23:05.875Z,0.1
2023-02-14T06:24:06.590Z,0.1
2023-02-14T06:25:06.189Z,0.1
2023-02-14T06:26:05.951Z,0.1
2023-02-14T06:27:06.674Z,0.1
2023-02-14T06:28:06.392Z,0.1
2023-02-14T06:29:05.750Z,0.1
2023-02-14T06:30:06.966Z,0.1
2023-02-14T06:31:07.342Z,0.1
2023-02-14T06:32:07.189Z,-1
2023-02-14T06:33:06.263Z,-1
2023-02-14T06:34:06.025Z,0.1
2023-02-14T06:35:06.434Z,0.1
2023-02-14T06:36:06.351Z,-1
2023-02-14T06:37:05.808Z,0.1
2023-02-14T06:38:06.585Z,0.1
2023-02-14T06:39:06.374Z,0.1
2023-02-14T06:40:06.089Z,0.1
2023-02-14T06:41:07.697Z,0.1
2023-02-14T06:42:06.351Z,0.1
2023-02-14T06:43:06.035Z,0.1
2023-02-14T06:44:05.741Z,0.1
2023-02-14T06:45:06.695Z,0.1
2023-02-14T06:46:06.139Z,0.1
2023-02-14T06:47:06.701Z,0.1
2023-02-14T06:48:06.499Z,0.1
2023-02-14T06:49:05.820Z,0
2023-02-14T06:50:06.490Z,0.1
2023-02-14T06:51:06.532Z,0.1
2023-02-14T06:52:05.865Z,0
2023-02-14T06:53:06.505Z,0
2023-02-14T06:54:06.235Z,0
2023-02-14T06:55:05.895Z,-1
2023-02-14T06:56:06.437Z,0
2023-02-14T06:57:06.215Z,0
2023-02-14T06:58:05.960Z,0.1
2023-02-14T06:59:06.844Z,-1
2023-02-14T07:00:06.236Z,0
2023-02-14T07:01:07.163Z,0
2023-02-14T07:02:06.409Z,-1
2023-02-14T07:03:06.232Z,0
2023-02-14T07:04:05.652Z,0
2023-02-14T07:05:06.133Z,0
2023-02-14T07:06:05.917Z,0
2023-02-14T07:07:06.520Z,-1
2023-02-14T07:08:06.268Z,0
2023-02-14T07:09:05.660Z,0
2023-02-14T07:10:06.388Z,0
2023-02-14T07:11:06.667Z,-1
2023-02-14T07:12:05.965Z,0
2023-02-14T07:13:06.679Z,0
2023-02-14T07:14:06.343Z,0
2023-02-14T07:15:05.939Z,0
2023-02-14T07:16:06.644Z,0
2023-02-14T07:17:05.990Z,0
2023-02-14T07:18:06.555Z,-0.1
2023-02-14T07:19:06.476Z,-1
2023-02-14T07:20:06.171Z,-0.1
2023-02-14T07:21:06.475Z,-0.1
2023-02-14T07:22:06.516Z,-0.1
2023-02-14T07:23:06.090Z,-0.1
2023-02-14T07:24:05.934Z,-0.1
2023-02-14T07:25:06.408Z,-0.1
2023-02-14T07:26:06.168Z,-0.1
2023-02-14T07:27:05.833Z,-1
2023-02-14T07:28:06.661Z,0
2023-02-14T07:29:06.148Z,0
2023-02-14T07:30:06.104Z,0
2023-02-14T07:31:07.477Z,0
2023-02-14T07:32:06.707Z,0
2023-02-14T07:33:05.743Z,0
2023-02-14T07:34:06.429Z,0
2023-02-14T07:35:06.067Z,0
2023-02-14T07:36:05.749Z,0
2023-02-14T07:37:06.308Z,-1
2023-02-14T07:38:05.900Z,0
2023-02-14T07:39:05.851Z,0
2023-02-14T07:40:12.438Z,-1
2023-02-14T07:41:06.333Z,0
2023-02-14T07:42:06.680Z,0
2023-02-14T07:43:06.313Z,0
2023-02-14T07:44:06.068Z,0
2023-02-14T07:45:23.320Z,0
2023-02-14T07:46:06.066Z,0
2023-02-14T07:47:05.666Z,0
2023-02-14T07:48:06.444Z,0
2023-02-14T07:49:06.132Z,0
2023-02-14T07:50:05.848Z,0
2023-02-14T07:51:06.893Z,0
2023-02-14T07:52:05.834Z,0
2023-02-14T07:53:06.302Z,0
2023-02-14T07:54:06.062Z,-1
2023-02-14T07:55:06.036Z,0
2023-02-14T07:56:06.217Z,0
2023-02-14T07:57:06.100Z,0
2023-02-14T07:58:05.897Z,0
2023-02-14T07:59:06.285Z,0
2023-02-14T08:00:06.276Z,0
2023-02-14T08:01:06.808Z,0
2023-02-14T08:02:06.382Z,0
2023-02-14T08:03:05.806Z,0.1
2023-02-14T08:04:06.656Z,0
2023-02-14T08:05:06.432Z,0
2023-02-14T08:06:06.057Z,-1
2023-02-14T08:07:05.960Z,0
2023-02-14T08:08:06.542Z,0.1
2023-02-14T08:09:06.148Z,0.1
2023-02-14T08:10:05.789Z,0.1
2023-02-14T08:11:06.864Z,0.1
2023-02-14T08:12:06.160Z,0.1
2023-02-14T08:13:06.802Z,0.2
2023-02-14T08:14:06.319Z,0.1
2023-02-14T08:15:05.986Z,0.1
2023-02-14T08:16:06.941Z,0.1
2023-02-14T08:17:06.575Z,0.2
2023-02-14T08:18:06.156Z,0.2
2023-02-14T08:19:06.675Z,0.2
2023-02-14T08:20:06.300Z,0.2
2023-02-14T08:21:06.484Z,0.2
2023-02-14T08:22:05.702Z,0.2
2023-02-14T08:23:06.483Z,0.2
2023-02-14T08:24:06.143Z,-1
2023-02-14T08:25:06.575Z,0.2
2023-02-14T08:26:06.341Z,0.2
2023-02-14T08:27:05.871Z,0.2
2023-02-14T08:28:06.604Z,0.2
2023-02-14T08:29:06.202Z,0.2
2023-02-14T08:30:06.190Z,0.2
2023-02-14T08:31:06.896Z,0.2
2023-02-14T08:32:06.167Z,0.2
2023-02-14T08:33:06.419Z,0.2
2023-02-14T08:34:06.328Z,0.2
2023-02-14T08:35:05.948Z,0.2
2023-02-14T08:36:06.605Z,0.2
2023-02-14T08:37:06.144Z,-1
2023-02-14T08:38:05.972Z,0.2
2023-02-14T08:39:06.807Z,0.2
2023-02-14T08:40:06.368Z,0.2
2023-02-14T08:41:11.494Z,0.2
2023-02-14T08:42:05.939Z,0.3
2023-02-14T08:43:06.574Z,0.3
2023-02-14T08:44:06.285Z,0.4
2023-02-14T08:45:05.752Z,0.3
2023-02-14T08:46:06.198Z,0.3
2023-02-14T08:47:06.649Z,0.4
2023-02-14T08:48:06.305Z,0.4
2023-02-14T08:49:05.713Z,0.4
2023-02-14T08:50:06.359Z,0.4
2023-02-14T08:51:06.685Z,0.4
2023-02-14T08:52:06.015Z,0.4
2023-02-14T08:53:06.525Z,0.4
2023-02-14T08:54:06.119Z,-1
2023-02-14T08:55:06.064Z,0.4
2023-02-14T08:56:06.260Z,0.4
2023-02-14T08:57:06.370Z,0.4
2023-02-14T08:58:05.920Z,0.4
2023-02-14T08:59:06.718Z,0.4
2023-02-14T09:00:06.313Z,0.4
2023-02-14T09:01:06.785Z,0.4
2023-02-14T09:02:06.760Z,0.4
2023-02-14T09:03:06.432Z,-1
2023-02-14T09:04:06.531Z,0.4
2023-02-14T09:05:05.953Z,0.5
2023-02-14T09:06:06.468Z,0.4
2023-02-14T09:07:06.011Z,0.5
2023-02-14T09:08:05.727Z,-1
2023-02-14T09:09:06.964Z,0.5
2023-02-14T09:10:06.171Z,0.5
2023-02-14T09:11:06.273Z,0.6
2023-02-14T09:12:06.506Z,0.6
2023-02-14T09:13:06.144Z,0.6
2023-02-14T09:14:05.841Z,0.6
2023-02-14T09:15:06.445Z,-1
2023-02-14T09:16:05.930Z,-1
2023-02-14T09:17:06.875Z,-1
2023-02-14T09:18:06.012Z,0.6
2023-02-14T09:19:06.147Z,0.6
2023-02-14T09:20:06.872Z,-1
2023-02-14T09:21:06.836Z,0.5
2023-02-14T09:22:06.337Z,0.6
2023-02-14T09:23:05.964Z,0.6
2023-02-14T09:24:06.555Z,0.6
2023-02-14T09:25:06.301Z,0.6
2023-02-14T09:26:05.951Z,0.6
2023-02-14T09:27:06.760Z,0.6
2023-02-14T09:28:06.418Z,0.6
2023-02-14T09:29:06.174Z,-1
2023-02-14T09:30:06.222Z,-1
2023-02-14T09:31:07.090Z,0.8
2023-02-14T09:32:06.636Z,0.8
2023-02-14T09:33:06.049Z,0.8
2023-02-14T09:34:06.618Z,0.8
2023-02-14T09:35:06.028Z,0.8
2023-02-14T09:36:05.798Z,0.8
2023-02-14T09:37:08.523Z,0.8
2023-02-14T09:38:06.318Z,0.8
2023-02-14T09:39:05.942Z,0.8
2023-02-14T09:40:06.740Z,0.9
2023-02-14T09:41:06.667Z,0.9
2023-02-14T09:42:06.089Z,0.9
2023-02-14T09:43:06.471Z,0
2023-02-14T09:44:06.339Z,0.9
2023-02-14T09:45:06.209Z,0.9
2023-02-14T09:46:06.037Z,1
2023-02-14T09:47:06.830Z,1
2023-02-14T09:48:06.426Z,1
2023-02-14T09:49:06.219Z,1
2023-02-14T09:50:06.869Z,1
2023-02-14T09:51:06.705Z,1
2023-02-14T09:52:05.936Z,1
2023-02-14T09:53:06.678Z,1
2023-02-14T09:54:06.340Z,1
2023-02-14T09:55:05.954Z,0.9
2023-02-14T09:56:06.714Z,1
2023-02-14T09:57:06.491Z,1
2023-02-14T09:58:05.930Z,0.9
2023-02-14T09:59:06.767Z,0.9
2023-02-14T10:00:06.347Z,0.9
2023-02-14T10:01:06.575Z,0.9
2023-02-14T10:02:06.746Z,1
2023-02-14T10:03:06.193Z,1
2023-02-14T10:04:05.952Z,1
2023-02-14T10:05:06.757Z,1
2023-02-14T10:06:06.360Z,0
2023-02-14T10:07:05.871Z,1.1
2023-02-14T10:08:06.529Z,0
2023-02-14T10:09:06.337Z,1.1
2023-02-14T10:10:06.077Z,1.2
2023-02-14T10:11:06.279Z,0
2023-02-14T10:12:06.473Z,1.2
2023-02-14T10:13:05.986Z,1.2
2023-02-14T10:14:05.832Z,1.2
2023-02-14T10:15:06.723Z,1.2
2023-02-14T10:16:06.405Z,0
2023-02-14T10:17:06.023Z,1.2
2023-02-14T10:18:06.550Z,1.3
2023-02-14T10:19:06.405Z,1.2
2023-02-14T10:20:06.137Z,1.3
2023-02-14T10:21:06.026Z,1.2
2023-02-14T10:22:06.412Z,1.3
2023-02-14T10:23:06.046Z,1.3
2023-02-14T10:24:05.703Z,1.3
2023-02-14T10:25:06.324Z,1.4
2023-02-14T10:26:06.124Z,1.4
2023-02-14T10:27:11.824Z,0
2023-02-14T10:28:06.554Z,0
2023-02-14T10:29:06.080Z,1.4
2023-02-14T10:30:06.175Z,1.4
2023-02-14T10:31:06.859Z,1.4
2023-02-14T10:32:06.044Z,1.4
2023-02-14T10:33:06.496Z,1.4
2023-02-14T10:34:06.202Z,1.4
2023-02-14T10:35:06.100Z,1.4
2023-02-14T10:36:06.676Z,1.4
2023-02-14T10:37:06.213Z,1.4
2023-02-14T10:38:05.993Z,1.4
2023-02-14T10:39:06.668Z,0
2023-02-14T10:40:06.302Z,1.5
2023-02-14T10:41:06.256Z,1.6
2023-02-14T10:42:05.762Z,0
2023-02-14T10:43:06.066Z,1.6
2023-02-14T10:44:06.354Z,1.6
2023-02-14T10:45:05.840Z,1.6
2023-02-14T10:46:06.879Z,1.6
2023-02-14T10:47:06.530Z,1.6
2023-02-14T10:48:05.990Z,1.6
2023-02-14T10:49:05.541Z,1.7
2023-02-14T10:50:06.437Z,1.7
2023-02-14T10:51:06.782Z,0
2023-02-14T10:52:05.910Z,1.8
2023-02-14T10:53:06.631Z,1.7
2023-02-14T10:54:06.400Z,1.8
2023-02-14T10:55:06.175Z,1.8
2023-02-14T10:56:05.804Z,1.8
2023-02-14T10:57:06.427Z,1.7
2023-02-14T10:58:05.858Z,1.8
2023-02-14T10:59:06.674Z,1.7
2023-02-14T11:00:06.435Z,1.7
2023-02-14T11:01:06.642Z,1.8
2023-02-14T11:02:06.561Z,1.8
2023-02-14T11:03:06.561Z,1.8
2023-02-14T11:04:06.126Z,1
2023-02-14T11:05:06.708Z,1.8
2023-02-14T11:06:06.346Z,1.9
2023-02-14T11:07:06.033Z,1.9
2023-02-14T11:08:05.763Z,2
2023-02-14T11:09:06.538Z,1.9
2023-02-14T11:10:06.097Z,2
2023-02-14T11:11:06.429Z,2
2023-02-14T11:12:06.404Z,2
2023-02-14T11:13:06.195Z,2
2023-02-14T11:14:05.939Z,2
2023-02-14T11:15:06.596Z,2
2023-02-14T11:16:06.946Z,1
2023-02-14T11:17:05.869Z,1
2023-02-14T11:18:06.530Z,2
2023-02-14T11:19:06.075Z,2.1
2023-02-14T11:20:06.722Z,2.1
2023-02-14T11:21:06.495Z,2.1
2023-02-14T11:22:06.185Z,2.1
2023-02-14T11:23:05.892Z,2.1
2023-02-14T11:24:06.467Z,2.1
2023-02-14T11:25:08.753Z,2.1
2023-02-14T11:26:06.173Z,2.1
2023-02-14T11:27:06.651Z,2
2023-02-14T11:28:06.440Z,2
2023-02-14T11:29:06.058Z,2
2023-02-14T11:30:05.909Z,2
2023-02-14T11:31:07.626Z,2
2023-02-14T11:32:06.401Z,2
2023-02-14T11:33:05.693Z,2
2023-02-14T11:34:08.954Z,2
2023-02-14T11:35:06.112Z,2
2023-02-14T11:36:05.770Z,2
2023-02-14T11:37:06.409Z,2
2023-02-14T11:38:06.183Z,2
2023-02-14T11:39:05.427Z,2
2023-02-14T11:40:06.440Z,2
2023-02-14T11:41:06.285Z,1.9
2023-02-14T11:42:05.758Z,2
2023-02-14T11:43:22.010Z,1.9
2023-02-14T11:44:06.072Z,1.9
2023-02-14T11:45:06.666Z,1.9
2023-02-14T11:46:06.232Z,1.9
2023-02-14T11:47:10.675Z,1.8
2023-02-14T11:48:06.447Z,1.8
2023-02-14T11:49:06.002Z,1.9
2023-02-14T11:50:05.902Z,1.9
2023-02-14T11:51:06.505Z,1.9
2023-02-14T11:52:06.302Z,1
2023-02-14T11:53:05.947Z,1.9
2023-02-14T11:54:06.611Z,1.9
2023-02-14T11:55:06.148Z,2
2023-02-14T11:56:06.002Z,2
2023-02-14T11:57:06.620Z,2
2023-02-14T11:58:06.132Z,2
2023-02-14T11:59:05.784Z,2
2023-02-14T12:00:06.429Z,2
2023-02-14T12:01:06.391Z,2
2023-02-14T12:02:06.080Z,2
2023-02-14T12:03:05.720Z,2.1
2023-02-14T12:04:06.580Z,2.1
2023-02-14T12:05:06.033Z,2.1
2023-02-14T12:06:06.795Z,2.1
2023-02-14T12:07:06.279Z,2.1
2023-02-14T12:08:05.955Z,2.1
2023-02-14T12:09:06.856Z,2.2
2023-02-14T12:10:06.255Z,2.2
2023-02-14T12:11:06.129Z,2.2
2023-02-14T12:12:05.816Z,2.2
2023-02-14T12:13:06.510Z,2.3
2023-02-14T12:14:06.259Z,1
2023-02-14T12:15:05.869Z,2.4
2023-02-14T12:16:06.449Z,2.3
2023-02-14T12:17:05.913Z,2.4
2023-02-14T12:18:06.467Z,1
2023-02-14T12:19:06.111Z,2.3
2023-02-14T12:20:05.966Z,2.4
2023-02-14T12:21:06.991Z,2.4
2023-02-14T12:22:06.266Z,2.4
2023-02-14T12:23:06.021Z,2.3
2023-02-14T12:24:06.641Z,2.3
2023-02-14T12:25:06.226Z,2.3
2023-02-14T12:26:06.052Z,2.3
2023-02-14T12:27:05.808Z,2.3
2023-02-14T12:28:06.511Z,2.2
2023-02-14T12:29:06.293Z,2.2
2023-02-14T12:30:06.055Z,2.2
2023-02-14T12:31:07.065Z,2.1
2023-02-14T12:32:06.421Z,2.2
2023-02-14T12:33:06.695Z,2.2
2023-02-14T12:34:06.596Z,2.2
2023-02-14T12:35:06.187Z,1
2023-02-14T12:36:05.941Z,2.2
2023-02-14T12:37:06.603Z,1
2023-02-14T12:38:09.208Z,2.2
2023-02-14T12:39:06.008Z,2.1
2023-02-14T12:40:06.543Z,2.1
2023-02-14T12:41:06.636Z,2.1
2023-02-14T12:42:05.701Z,2.1
2023-02-14T12:43:06.326Z,2.1
2023-02-14T12:44:05.971Z,2.2
2023-02-14T12:45:05.771Z,2.2
2023-02-14T12:46:07.324Z,2.2
2023-02-14T12:47:06.147Z,1
2023-02-14T12:48:05.991Z,2.2
2023-02-14T12:49:05.512Z,2.1
2023-02-14T12:50:06.443Z,2
2023-02-14T12:51:06.646Z,2.1
2023-02-14T12:52:05.786Z,2.1
2023-02-14T12:53:06.375Z,2
2023-02-14T12:54:06.000Z,2
2023-02-14T12:55:06.722Z,2
2023-02-14T12:56:06.293Z,2
2023-02-14T12:57:06.065Z,2
2023-02-14T12:58:05.717Z,2.1
2023-02-14T12:59:06.420Z,2.1
2023-02-14T13:00:06.108Z,2.1
2023-02-14T13:01:06.644Z,2
2023-02-14T13:02:06.376Z,2
2023-02-14T13:03:06.061Z,2
2023-02-14T13:04:06.406Z,2.1
2023-02-14T13:05:06.050Z,2
2023-02-14T13:06:05.751Z,2
2023-02-14T13:07:06.525Z,2.1
2023-02-14T13:08:06.332Z,2
2023-02-14T13:09:06.019Z,2
2023-02-14T13:10:06.392Z,2
2023-02-14T13:11:06.855Z,2
2023-02-14T13:12:06.183Z,2
2023-02-14T13:13:06.788Z,2
2023-02-14T13:14:06.492Z,2
2023-02-14T13:15:05.914Z,2
2023-02-14T13:16:06.132Z,2.1
2023-02-14T13:17:06.303Z,2.1
2023-02-14T13:18:05.939Z,2.1
2023-02-14T13:19:05.979Z,2
2023-02-14T13:20:06.524Z,2
2023-02-14T13:21:06.610Z,2
2023-02-14T13:22:06.034Z,2
2023-02-14T13:23:06.679Z,2
2023-02-14T13:24:06.363Z,1
2023-02-14T13:25:05.945Z,2
2023-02-14T13:26:06.613Z,2
2023-02-14T13:27:06.219Z,2
2023-02-14T13:28:05.974Z,2
2023-02-14T13:29:06.747Z,1
2023-02-14T13:30:06.667Z,2
2023-02-14T13:31:07.281Z,1.9
2023-02-14T13:32:06.990Z,1.9
2023-02-14T13:33:06.226Z,1.9
2023-02-14T13:34:05.919Z,1.9
2023-02-14T13:35:06.511Z,2
2023-02-14T13:36:06.584Z,2
2023-02-14T13:37:05.721Z,1.9
2023-02-14T13:38:06.354Z,2
2023-02-14T13:39:06.277Z,2
2023-02-14T13:40:05.737Z,2
2023-02-14T13:41:07.101Z,2
2023-02-14T13:42:06.012Z,2
2023-02-14T13:43:05.881Z,2
2023-02-14T13:44:06.416Z,2
2023-02-14T13:45:06.432Z,2
2023-02-14T13:46:06.208Z,2
2023-02-14T13:47:05.839Z,2
2023-02-14T13:48:06.667Z,2
2023-02-14T13:49:06.344Z,2
2023-02-14T13:50:05.939Z,2
2023-02-14T13:51:06.995Z,2
2023-02-14T13:52:06.250Z,2.1
2023-02-14T13:53:05.854Z,2
2023-02-14T13:54:06.779Z,2.1
2023-02-14T13:55:06.567Z,2
2023-02-14T13:56:06.574Z,2.1
2023-02-14T13:57:05.837Z,2
2023-02-14T13:58:06.342Z,2
2023-02-14T13:59:05.942Z,2.1
2023-02-14T14:00:05.711Z,2.1